Brentwood, TN

12:40 PM CDT on April 01, 2015 (GMT -0500)
Stonehenge Subdivison | | Change Station
CLOSE
Current Station
Personal Weather Station
Location: Brentwood, TN
Elevation: 807 ft
Nearby Weather Stations

Elev 807 ft 35.99 °N, 86.82 °W | Updated 7 seconds ago

Partly Cloudy
Partly Cloudy
71.0 °F
Feels Like 75 °F
N
7.0
Wind Variable Wind from East
Gusts 10.0 mph

Today
High -- | Low -- °F
--% Chance of Precip.
Yesterday
High -- | Low -- °F
Precip. -- in
6:33 AM 7:08 PM
Waxing Gibbous, 93% visible
Pressure 30.10 in
Visibility 10.0 miles
Clouds Few 20000 ft
Mostly Cloudy 25000 ft
Heat Index 75 °F
Dew Point 32 °F
Humidity 24%
Rainfall 0.00 in
Snow Depth Not available.
UV 5 out of 12
Pollen 10.20 out of 12
Air Quality Not available.
Flu Activity Not available.
METAR KBNA 011653Z 07008KT 10SM FEW200 BKN250 22/00 A3011 RMK AO2 SLP191 T02170000

More Conditions Fewer Conditions

Pressure 30.10 in
Visibility 10.0 miles
Clouds Few 20000 ft
Mostly Cloudy 25000 ft
Heat Index 75 °F
Dew Point 32 °F
Humidity 24%
Rainfall 0.00 in
Snow Depth Not available.
UV 5 out of 12
Pollen 10.20 out of 12
Air Quality Not available.
Flu Activity Not available.
METAR KBNA 011653Z 07008KT 10SM FEW200 BKN250 22/00 A3011 RMK AO2 SLP191 T02170000

More Conditions Fewer Conditions

10-Day Weather Forecast

Almanac

Astronomy

Apr. 01, 2015 Rise Set
Actual Time
Civil Twilight
Nautical Twilight
Astronomical Twilight
Moon
Length of Visible Light
Length of Day
Tomorrow will be .
, % of the Moon is Illuminated

Today's Extremes

State Highs State Lows

Community

WunderPhotos

Upload Photos

1,810,018 photos uploaded!

WunderBlogs® & News

Nearby

Air Quality

  Air Quality AQ Index Pollutant
Not available.

Snow Depth

Station Depth Elevation

Earthquake Activity

City Distance Mag. Time & Date
Minimum magnitude displayed is 2.5.

Coastal Water Temperatures

Place Temperature

Stations

Nearby Weather Stations

Station Location Temp. Windchill Dew Point Humidity Wind Precip. Elev Updated Type